Time;durP1;ratioP1;P1;durP2;ratioP2;P2;SDS_P1;SDS_P2;PMS_P1;PMS_P2;Temp;Humidity;BMP_temperature;BMP_pressure;BME280_temperature;BME280_humidity;BME280_pressure;Samples;Min_cycle;Max_cycle;Signal;HPM_P1;HPM_P2
2021/10/08 00:01:37;;;;;;;6.32;4.28;;;;;;;;;;5072361;28;21490;-50
2021/10/08 00:04:03;;;;;;;7.05;4.32;;;;;;;;;;5070431;28;20033;-52
2021/10/08 00:06:29;;;;;;;6.65;4.10;;;;;;;;;;5074662;28;20028;-53
2021/10/08 00:08:55;;;;;;;7.57;4.10;;;;;;;;;;5072650;28;20036;-51
2021/10/08 00:11:21;;;;;;;6.82;4.05;;;;;;;;;;5065819;28;20161;-53
2021/10/08 00:13:47;;;;;;;6.38;3.90;;;;;;;;;;5072572;28;20036;-51
2021/10/08 00:16:14;;;;;;;6.90;4.15;;;;;;;;;;5072726;28;20024;-53
2021/10/08 00:18:41;;;;;;;6.72;4.30;;;;;;;;;;5074864;28;20101;-55
2021/10/08 00:21:07;;;;;;;7.07;3.75;;;;;;;;;;5065229;28;20043;-52
2021/10/08 00:23:34;;;;;;;5.45;3.63;;;;;;;;;;5071540;28;20424;-53
2021/10/08 00:26:00;;;;;;;6.00;3.78;;;;;;;;;;5074930;28;20112;-54
2021/10/08 00:28:26;;;;;;;6.07;4.15;;;;;;;;;;5075578;28;20103;-51
2021/10/08 00:30:52;;;;;;;5.13;3.35;;;;;;;;;;5075224;28;20465;-53
2021/10/08 00:33:18;;;;;;;6.40;4.03;;;;;;;;;;5072136;28;20035;-51
2021/10/08 00:35:44;;;;;;;6.60;4.18;;;;;;;;;;5065887;28;20261;-50
2021/10/08 00:38:10;;;;;;;6.18;3.88;;;;;;;;;;5068448;28;20032;-52
2021/10/08 00:40:36;;;;;;;8.85;4.20;;;;;;;;;;5069496;28;20035;-52
2021/10/08 00:43:03;;;;;;;6.03;3.60;;;;;;;;;;5067710;28;20031;-51
2021/10/08 00:45:30;;;;;;;6.70;3.88;;;;;;;;;;5075094;28;20104;-52
2021/10/08 00:48:00;;;;;;;9.30;4.25;;;;;;;;;;5067815;28;20115;-54
2021/10/08 00:50:26;;;;;;;9.27;4.05;;;;;;;;;;5074655;28;20100;-52
2021/10/08 00:52:52;;;;;;;4.55;3.67;;;;;;;;;;5063256;28;20372;-53
2021/10/08 00:55:18;;;;;;;7.28;3.85;;;;;;;;;;5074630;28;20086;-54
2021/10/08 00:57:45;;;;;;;6.38;4.13;;;;;;;;;;5071997;28;20031;-51
2021/10/08 01:00:16;;;;;;;5.35;3.78;;;;;;;;;;5068567;28;20013;-52
2021/10/08 01:02:42;;;;;;;7.78;4.80;;;;;;;;;;5069461;28;20107;-51
2021/10/08 01:05:08;;;;;;;7.75;4.07;;;;;;;;;;5072836;28;20116;-54
2021/10/08 01:07:34;;;;;;;7.75;4.80;;;;;;;;;;5071660;28;20062;-52
2021/10/08 01:10:00;;;;;;;8.15;4.68;;;;;;;;;;5074616;28;20028;-55
2021/10/08 01:12:26;;;;;;;8.57;3.78;;;;;;;;;;5072759;28;20068;-51
2021/10/08 01:14:52;;;;;;;7.53;4.63;;;;;;;;;;5074419;28;20094;-52
2021/10/08 01:17:19;;;;;;;6.35;4.03;;;;;;;;;;5074398;28;20115;-54
2021/10/08 01:19:46;;;;;;;7.55;4.80;;;;;;;;;;5067760;28;20036;-51
2021/10/08 01:22:12;;;;;;;6.90;4.18;;;;;;;;;;5066461;28;20063;-53
2021/10/08 01:24:38;;;;;;;6.65;4.30;;;;;;;;;;5071375;28;20199;-55
2021/10/08 01:27:05;;;;;;;5.70;4.05;;;;;;;;;;5071793;28;20032;-52
2021/10/08 01:29:31;;;;;;;9.18;5.15;;;;;;;;;;5077489;28;20073;-53
2021/10/08 01:31:58;;;;;;;8.77;4.68;;;;;;;;;;5058520;28;20111;-51
2021/10/08 01:34:24;;;;;;;6.88;4.40;;;;;;;;;;5067622;28;20032;-52
2021/10/08 01:36:50;;;;;;;8.65;4.80;;;;;;;;;;5067881;28;20021;-51
2021/10/08 01:39:16;;;;;;;9.10;4.72;;;;;;;;;;5073732;28;20052;-55
2021/10/08 01:41:42;;;;;;;6.40;3.92;;;;;;;;;;5062680;28;20063;-51
2021/10/08 01:44:08;;;;;;;7.38;4.50;;;;;;;;;;5074054;28;20132;-50
2021/10/08 01:46:34;;;;;;;7.40;5.20;;;;;;;;;;5073968;28;20028;-53
2021/10/08 01:49:01;;;;;;;9.18;4.32;;;;;;;;;;5073358;28;20108;-51
2021/10/08 01:51:27;;;;;;;6.85;4.45;;;;;;;;;;5066480;28;20111;-50
2021/10/08 01:53:53;;;;;;;6.88;4.53;;;;;;;;;;5073376;28;20028;-54
2021/10/08 01:56:19;;;;;;;9.98;4.68;;;;;;;;;;5068607;28;20023;-50
2021/10/08 01:58:45;;;;;;;7.90;4.82;;;;;;;;;;5069248;28;20028;-55
2021/10/08 02:01:11;;;;;;;8.50;4.90;;;;;;;;;;5064445;28;20032;-55
2021/10/08 02:03:37;;;;;;;6.72;4.35;;;;;;;;;;5072921;28;20368;-52
2021/10/08 02:06:03;;;;;;;7.38;4.70;;;;;;;;;;5072657;28;20400;-52
2021/10/08 02:08:29;;;;;;;13.15;5.57;;;;;;;;;;5070631;28;20028;-51
2021/10/08 02:10:55;;;;;;;6.47;4.10;;;;;;;;;;5069513;28;20024;-54
2021/10/08 02:13:21;;;;;;;7.25;4.70;;;;;;;;;;5072994;28;20032;-51
2021/10/08 02:15:47;;;;;;;10.75;4.82;;;;;;;;;;5070493;28;20028;-51
2021/10/08 02:18:13;;;;;;;9.30;4.38;;;;;;;;;;5070094;28;20040;-51
2021/10/08 02:20:40;;;;;;;7.65;4.70;;;;;;;;;;5073096;28;20463;-52
2021/10/08 02:23:08;;;;;;;7.50;4.90;;;;;;;;;;5071844;28;20032;-52
2021/10/08 02:25:34;;;;;;;6.85;4.40;;;;;;;;;;5068849;28;20028;-55
2021/10/08 02:28:00;;;;;;;10.25;4.95;;;;;;;;;;5075406;28;20024;-53
2021/10/08 02:30:26;;;;;;;7.22;4.82;;;;;;;;;;5071113;28;20088;-52
2021/10/08 02:32:52;;;;;;;8.85;4.78;;;;;;;;;;5073616;28;20032;-54
2021/10/08 02:35:18;;;;;;;8.25;4.65;;;;;;;;;;5063593;28;20086;-55
2021/10/08 02:37:44;;;;;;;12.50;4.97;;;;;;;;;;5067083;28;20029;-55
2021/10/08 02:40:10;;;;;;;7.05;4.53;;;;;;;;;;5070403;28;20476;-52
2021/10/08 02:42:36;;;;;;;8.20;4.80;;;;;;;;;;5070451;28;20081;-51
2021/10/08 02:45:03;;;;;;;8.25;5.32;;;;;;;;;;5069119;28;20028;-54
2021/10/08 02:47:29;;;;;;;7.85;4.60;;;;;;;;;;5073216;28;20051;-53
2021/10/08 02:49:55;;;;;;;8.25;4.93;;;;;;;;;;5071164;28;20047;-55
2021/10/08 02:52:21;;;;;;;10.63;4.90;;;;;;;;;;5064403;28;20040;-51
2021/10/08 02:54:47;;;;;;;8.63;4.90;;;;;;;;;;5068065;28;20036;-55
2021/10/08 02:57:13;;;;;;;8.60;5.10;;;;;;;;;;5072042;28;20039;-53
2021/10/08 02:59:39;;;;;;;6.75;4.75;;;;;;;;;;5073031;28;20028;-51
2021/10/08 03:02:05;;;;;;;9.70;5.28;;;;;;;;;;5072536;28;20027;-54
2021/10/08 03:04:31;;;;;;;8.13;4.05;;;;;;;;;;5071377;28;20044;-54
2021/10/08 03:06:57;;;;;;;9.40;4.72;;;;;;;;;;5067415;28;20035;-53
2021/10/08 03:09:24;;;;;;;6.50;4.60;;;;;;;;;;5070054;28;20028;-53
2021/10/08 03:11:50;;;;;;;7.97;4.40;;;;;;;;;;5059933;28;20029;-53
2021/10/08 03:14:16;;;;;;;6.88;4.53;;;;;;;;;;5068885;28;20024;-53
2021/10/08 03:16:42;;;;;;;8.85;5.07;;;;;;;;;;5064889;28;20345;-53
2021/10/08 03:19:08;;;;;;;6.88;4.88;;;;;;;;;;5072200;28;20094;-53
2021/10/08 03:21:34;;;;;;;11.75;4.22;;;;;;;;;;5072114;28;20052;-53
2021/10/08 03:24:00;;;;;;;8.15;4.68;;;;;;;;;;5072344;28;20027;-51
2021/10/08 03:26:26;;;;;;;6.93;4.45;;;;;;;;;;5064685;28;20528;-55
2021/10/08 03:28:51;;;;;;;7.45;4.85;;;;;;;;;;5072447;28;20028;-52
2021/10/08 03:31:17;;;;;;;6.35;4.78;;;;;;;;;;5074667;28;20028;-53
2021/10/08 03:33:43;;;;;;;8.65;4.78;;;;;;;;;;5070681;28;20104;-51
2021/10/08 03:36:16;;;;;;;8.52;4.68;;;;;;;;;;5069790;28;20020;-51
2021/10/08 03:38:42;;;;;;;10.03;4.37;;;;;;;;;;5074134;28;20016;-52
2021/10/08 03:41:15;;;;;;;8.63;5.40;;;;;;;;;;5073559;28;20056;-53
2021/10/08 03:43:42;;;;;;;8.55;4.50;;;;;;;;;;5076021;28;20037;-52
2021/10/08 03:46:09;;;;;;;6.72;4.47;;;;;;;;;;5072154;28;20047;-52
2021/10/08 03:51:22;;;;;;;8.15;5.25;;;;;;;;;;5072909;28;20106;-53
2021/10/08 03:53:48;;;;;;;7.13;4.85;;;;;;;;;;5075446;28;20055;-53
2021/10/08 03:56:14;;;;;;;8.95;5.32;;;;;;;;;;5073131;28;20113;-52
2021/10/08 03:58:40;;;;;;;7.13;5.05;;;;;;;;;;5069701;28;20099;-52
2021/10/08 04:01:06;;;;;;;10.82;5.18;;;;;;;;;;5079788;28;20471;-53
2021/10/08 04:03:32;;;;;;;8.52;4.45;;;;;;;;;;5074866;28;20105;-51
2021/10/08 04:05:58;;;;;;;8.32;5.00;;;;;;;;;;5069040;28;20029;-52
2021/10/08 04:08:24;;;;;;;7.68;4.63;;;;;;;;;;5070140;28;20052;-51
2021/10/08 04:10:50;;;;;;;7.18;4.93;;;;;;;;;;5069408;28;20059;-50
2021/10/08 04:13:16;;;;;;;10.15;5.20;;;;;;;;;;5071579;28;20029;-51
2021/10/08 04:15:42;;;;;;;9.68;5.75;;;;;;;;;;5071141;28;20062;-54
2021/10/08 04:18:11;;;;;;;10.07;5.88;;;;;;;;;;5068771;28;20036;-52
2021/10/08 04:20:37;;;;;;;9.23;4.97;;;;;;;;;;5073113;28;20029;-51
2021/10/08 04:23:03;;;;;;;9.60;5.60;;;;;;;;;;5071691;28;20107;-54
2021/10/08 04:25:29;;;;;;;9.73;6.10;;;;;;;;;;5063767;28;20457;-53
2021/10/08 04:27:55;;;;;;;13.23;6.55;;;;;;;;;;5064915;28;20082;-54
2021/10/08 04:30:21;;;;;;;10.80;5.68;;;;;;;;;;5067047;28;20028;-53
2021/10/08 04:32:48;;;;;;;11.05;6.28;;;;;;;;;;5067347;28;20020;-52
2021/10/08 04:35:14;;;;;;;13.07;6.50;;;;;;;;;;5063388;28;20067;-55
2021/10/08 04:37:40;;;;;;;12.45;6.55;;;;;;;;;;5062243;28;20024;-53
2021/10/08 04:40:07;;;;;;;14.02;6.18;;;;;;;;;;5061879;28;20032;-53
2021/10/08 04:42:33;;;;;;;11.02;6.45;;;;;;;;;;5065217;28;21276;-52
2021/10/08 04:44:59;;;;;;;16.23;8.20;;;;;;;;;;5064359;28;20063;-55
2021/10/08 04:47:25;;;;;;;20.77;10.35;;;;;;;;;;5063398;28;20020;-52
2021/10/08 04:49:50;;;;;;;26.15;11.45;;;;;;;;;;5067297;28;20492;-51
2021/10/08 04:52:17;;;;;;;25.48;10.77;;;;;;;;;;5074172;28;20028;-52
2021/10/08 04:54:42;;;;;;;26.17;11.27;;;;;;;;;;5063800;28;20481;-50
2021/10/08 04:57:09;;;;;;;26.42;11.57;;;;;;;;;;5072612;28;20082;-50
2021/10/08 04:59:35;;;;;;;28.77;12.30;;;;;;;;;;5079348;28;20786;-49
2021/10/08 05:02:01;;;;;;;20.15;9.25;;;;;;;;;;5069516;28;20166;-49
2021/10/08 05:04:27;;;;;;;24.70;9.82;;;;;;;;;;5070970;28;20047;-49
2021/10/08 05:06:53;;;;;;;27.80;11.77;;;;;;;;;;5072737;28;20640;-48
2021/10/08 05:09:19;;;;;;;22.45;9.63;;;;;;;;;;5068478;28;20024;-48
2021/10/08 05:11:45;;;;;;;13.95;7.45;;;;;;;;;;5070441;28;20445;-49
2021/10/08 05:14:11;;;;;;;19.70;9.25;;;;;;;;;;5064519;28;20388;-49
2021/10/08 05:16:40;;;;;;;15.40;8.18;;;;;;;;;;5069746;28;20101;-54
2021/10/08 05:19:06;;;;;;;23.42;10.00;;;;;;;;;;5064424;28;20052;-51
2021/10/08 05:21:33;;;;;;;26.77;11.73;;;;;;;;;;5065889;28;20029;-51
2021/10/08 05:23:59;;;;;;;25.05;11.82;;;;;;;;;;5066333;28;20025;-52
2021/10/08 05:26:25;;;;;;;24.17;11.63;;;;;;;;;;5064043;28;20074;-49
2021/10/08 05:28:51;;;;;;;25.63;10.70;;;;;;;;;;5072895;28;20036;-49
2021/10/08 05:31:17;;;;;;;25.67;10.85;;;;;;;;;;5069673;28;20070;-50
2021/10/08 05:33:43;;;;;;;19.42;10.32;;;;;;;;;;5062304;28;20035;-51
2021/10/08 05:36:09;;;;;;;20.42;9.05;;;;;;;;;;5072769;28;20037;-49
2021/10/08 05:38:35;;;;;;;24.02;10.90;;;;;;;;;;5067540;28;20442;-49
2021/10/08 05:41:01;;;;;;;25.63;11.50;;;;;;;;;;5070971;28;20096;-48
2021/10/08 05:43:27;;;;;;;21.83;10.38;;;;;;;;;;5072452;28;20052;-49
2021/10/08 05:45:54;;;;;;;27.98;11.13;;;;;;;;;;5072007;28;20025;-53
2021/10/08 05:48:20;;;;;;;28.48;13.05;;;;;;;;;;5064095;28;20089;-50
2021/10/08 05:50:46;;;;;;;25.48;13.60;;;;;;;;;;5055631;28;20116;-52
2021/10/08 05:53:12;;;;;;;34.80;14.45;;;;;;;;;;5062279;28;20028;-51
2021/10/08 05:55:38;;;;;;;35.17;14.13;;;;;;;;;;5060217;28;20366;-50
2021/10/08 05:58:06;;;;;;;32.05;14.98;;;;;;;;;;5060995;28;20064;-51
2021/10/08 06:00:32;;;;;;;34.30;14.70;;;;;;;;;;5063966;28;20042;-49
2021/10/08 06:02:58;;;;;;;31.83;14.27;;;;;;;;;;5063002;28;20040;-49
2021/10/08 06:05:24;;;;;;;31.42;14.23;;;;;;;;;;5070726;28;20039;-50
2021/10/08 06:07:50;;;;;;;35.80;14.48;;;;;;;;;;5068655;28;20100;-50
2021/10/08 06:10:16;;;;;;;28.95;13.82;;;;;;;;;;5064096;28;20074;-50
2021/10/08 06:12:43;;;;;;;33.55;15.00;;;;;;;;;;5062020;28;20052;-52
2021/10/08 06:15:09;;;;;;;31.98;14.63;;;;;;;;;;5061347;28;20028;-50
2021/10/08 06:17:35;;;;;;;31.33;13.30;;;;;;;;;;5068542;28;20021;-51
2021/10/08 06:20:01;;;;;;;33.25;14.63;;;;;;;;;;5062398;28;20381;-49
2021/10/08 06:22:27;;;;;;;30.33;13.98;;;;;;;;;;5062086;28;20115;-51
2021/10/08 06:24:53;;;;;;;36.08;14.88;;;;;;;;;;5063287;28;20033;-49
2021/10/08 06:27:20;;;;;;;35.40;15.60;;;;;;;;;;5063871;28;20087;-52
2021/10/08 06:29:46;;;;;;;28.92;13.77;;;;;;;;;;5064271;28;20024;-49
2021/10/08 06:32:12;;;;;;;30.23;14.13;;;;;;;;;;5071576;28;20040;-51
2021/10/08 06:34:38;;;;;;;35.08;15.73;;;;;;;;;;5066166;28;20040;-49
2021/10/08 06:37:04;;;;;;;34.05;14.27;;;;;;;;;;5069958;28;20480;-50
2021/10/08 06:39:30;;;;;;;30.80;15.77;;;;;;;;;;5066990;28;20127;-50
2021/10/08 06:41:56;;;;;;;33.00;15.43;;;;;;;;;;5066101;28;20027;-51
2021/10/08 06:44:22;;;;;;;29.30;14.50;;;;;;;;;;5063129;28;20043;-49
2021/10/08 06:46:48;;;;;;;30.00;14.40;;;;;;;;;;5071365;28;20487;-49
2021/10/08 06:49:14;;;;;;;35.30;16.60;;;;;;;;;;5071571;28;20082;-49
2021/10/08 06:51:40;;;;;;;29.05;14.50;;;;;;;;;;5065743;28;20040;-50
2021/10/08 06:54:06;;;;;;;33.85;16.02;;;;;;;;;;5064769;28;20037;-49
2021/10/08 06:56:32;;;;;;;36.65;15.68;;;;;;;;;;5065724;28;20238;-50
2021/10/08 06:58:58;;;;;;;36.55;15.80;;;;;;;;;;5072116;28;20029;-49
2021/10/08 07:01:24;;;;;;;33.92;15.52;;;;;;;;;;5073407;28;20025;-49
2021/10/08 07:03:50;;;;;;;35.05;15.30;;;;;;;;;;5070387;28;20024;-49
2021/10/08 07:06:16;;;;;;;37.58;18.15;;;;;;;;;;5066390;28;20060;-51
2021/10/08 07:08:42;;;;;;;37.83;17.65;;;;;;;;;;5069037;28;20099;-49
2021/10/08 07:11:08;;;;;;;36.35;17.92;;;;;;;;;;5063283;28;20481;-50
2021/10/08 07:13:34;;;;;;;36.90;18.52;;;;;;;;;;5062008;28;20328;-51
2021/10/08 07:16:01;;;;;;;39.13;17.67;;;;;;;;;;5075372;28;20380;-51
2021/10/08 07:18:34;;;;;;;38.13;18.17;;;;;;;;;;5074530;28;20044;-49
2021/10/08 07:21:00;;;;;;;;;;;;;;;;;;5076202;28;20111;-49
2021/10/08 07:23:26;;;;;;;44.83;19.95;;;;;;;;;;5068890;28;20348;-49
2021/10/08 07:25:53;;;;;;;38.95;18.48;;;;;;;;;;5064803;28;20095;-53
2021/10/08 07:28:20;;;;;;;42.00;18.13;;;;;;;;;;5070185;28;20063;-50
2021/10/08 07:30:46;;;;;;;40.55;18.98;;;;;;;;;;5075178;28;20028;-49
2021/10/08 07:33:12;;;;;;;47.38;19.45;;;;;;;;;;5074418;28;20487;-51
2021/10/08 07:35:39;;;;;;;36.95;17.48;;;;;;;;;;5073874;28;20442;-50
2021/10/08 07:38:05;;;;;;;40.90;17.13;;;;;;;;;;5071790;28;20027;-49
2021/10/08 07:40:31;;;;;;;37.60;17.42;;;;;;;;;;5074053;28;20017;-49
2021/10/08 07:42:57;;;;;;;34.03;16.35;;;;;;;;;;5068549;28;20190;-51
2021/10/08 07:45:23;;;;;;;36.15;17.65;;;;;;;;;;5071658;28;20037;-49
2021/10/08 07:47:49;;;;;;;36.25;17.70;;;;;;;;;;5073720;28;20028;-49
2021/10/08 07:50:15;;;;;;;36.90;17.45;;;;;;;;;;5071793;28;20548;-51
2021/10/08 07:52:41;;;;;;;38.60;17.98;;;;;;;;;;5072168;28;20025;-53
2021/10/08 07:55:09;;;;;;;36.13;16.65;;;;;;;;;;5071489;28;20032;-49
2021/10/08 07:57:35;;;;;;;34.05;16.10;;;;;;;;;;5071731;28;20031;-49
2021/10/08 08:00:01;;;;;;;31.02;15.77;;;;;;;;;;5080013;28;20024;-49
2021/10/08 08:02:28;;;;;;;30.10;15.07;;;;;;;;;;5069013;28;20070;-52
2021/10/08 08:04:55;;;;;;;31.33;15.25;;;;;;;;;;5069420;28;20051;-50
2021/10/08 08:07:21;;;;;;;30.02;14.80;;;;;;;;;;5069435;28;20078;-49
2021/10/08 08:09:47;;;;;;;30.50;15.48;;;;;;;;;;5074309;28;20032;-49
2021/10/08 08:12:13;;;;;;;27.83;13.80;;;;;;;;;;5069304;28;20525;-49
2021/10/08 08:14:39;;;;;;;25.25;13.45;;;;;;;;;;5072486;28;20112;-49
2021/10/08 08:17:05;;;;;;;27.30;13.15;;;;;;;;;;5072422;28;20028;-49
2021/10/08 08:19:31;;;;;;;24.88;12.40;;;;;;;;;;5073665;28;20416;-50
2021/10/08 08:21:57;;;;;;;29.75;13.45;;;;;;;;;;5074484;28;20121;-52
2021/10/08 08:24:24;;;;;;;26.23;14.05;;;;;;;;;;5074066;28;20044;-52
2021/10/08 08:26:50;;;;;;;26.17;12.98;;;;;;;;;;5073831;28;20027;-51
2021/10/08 08:29:16;;;;;;;29.67;14.35;;;;;;;;;;5074082;28;20075;-51
2021/10/08 08:31:43;;;;;;;29.35;14.18;;;;;;;;;;5066146;28;20048;-50
2021/10/08 08:34:09;;;;;;;31.45;14.95;;;;;;;;;;5074222;28;20021;-51
2021/10/08 08:36:35;;;;;;;29.63;14.73;;;;;;;;;;5073866;28;20070;-50
2021/10/08 08:39:07;;;;;;;25.00;13.00;;;;;;;;;;5072546;28;20033;-51
2021/10/08 08:41:33;;;;;;;26.55;13.25;;;;;;;;;;5073912;28;20021;-50
2021/10/08 08:44:00;;;;;;;28.15;13.60;;;;;;;;;;5074301;28;20092;-50
2021/10/08 08:46:26;;;;;;;26.98;13.07;;;;;;;;;;5073178;28;20371;-50
2021/10/08 08:48:53;;;;;;;32.42;14.45;;;;;;;;;;5073500;28;20112;-51
2021/10/08 08:51:19;;;;;;;26.80;13.40;;;;;;;;;;5072185;28;20442;-51
2021/10/08 08:53:45;;;;;;;30.92;14.75;;;;;;;;;;5072212;28;20086;-54
2021/10/08 08:56:11;;;;;;;27.25;13.25;;;;;;;;;;5068210;28;20032;-49
2021/10/08 08:58:37;;;;;;;34.50;13.18;;;;;;;;;;5070289;28;20040;-49
2021/10/08 09:01:04;;;;;;;26.38;14.35;;;;;;;;;;5074799;28;20024;-50
2021/10/08 09:03:30;;;;;;;23.35;11.55;;;;;;;;;;5066241;28;20357;-50
2021/10/08 09:05:56;;;;;;;31.58;13.25;;;;;;;;;;5073292;28;20544;-52
2021/10/08 09:08:32;;;;;;;25.50;11.27;;;;;;;;;;5073444;28;20028;-51
2021/10/08 09:10:59;;;;;;;22.92;11.23;;;;;;;;;;5069070;28;20099;-49
2021/10/08 09:13:27;;;;;;;23.35;12.00;;;;;;;;;;5073877;28;20048;-49
2021/10/08 09:15:57;;;;;;;26.70;12.68;;;;;;;;;;5071080;28;20108;-50
2021/10/08 09:18:24;;;;;;;24.95;11.45;;;;;;;;;;5072894;28;20048;-50
2021/10/08 09:21:08;;;;;;;19.70;10.95;;;;;;;;;;5073306;28;20032;-49
2021/10/08 09:23:38;;;;;;;19.38;9.85;;;;;;;;;;5074900;28;20027;-49
2021/10/08 09:26:05;;;;;;;16.60;8.95;;;;;;;;;;5064677;28;20032;-51
2021/10/08 09:28:31;;;;;;;20.52;10.10;;;;;;;;;;5070690;28;20035;-52
2021/10/08 09:30:57;;;;;;;16.55;9.15;;;;;;;;;;5070964;28;20075;-49
2021/10/08 09:33:24;;;;;;;16.83;8.52;;;;;;;;;;5061814;28;20044;-51
2021/10/08 09:35:53;;;;;;;17.80;9.05;;;;;;;;;;5066876;28;20031;-50
2021/10/08 09:38:19;;;;;;;15.13;7.93;;;;;;;;;;5064352;28;20021;-50
2021/10/08 09:40:56;;;;;;;13.88;7.97;;;;;;;;;;5063720;28;20028;-49
2021/10/08 09:43:22;;;;;;;17.10;7.63;;;;;;;;;;5071029;28;20029;-51
2021/10/08 09:45:51;;;;;;;11.20;6.30;;;;;;;;;;5068244;28;20027;-51
2021/10/08 09:48:21;;;;;;;17.80;8.02;;;;;;;;;;5071570;28;20127;-51
2021/10/08 09:51:05;;;;;;;12.43;7.00;;;;;;;;;;5071514;28;20099;-51
2021/10/08 09:53:32;;;;;;;16.35;7.40;;;;;;;;;;5072085;28;20150;-54
2021/10/08 09:55:58;;;;;;;12.02;6.50;;;;;;;;;;5071332;28;20024;-53
2021/10/08 09:58:24;;;;;;;11.52;6.22;;;;;;;;;;5074355;28;20018;-51
2021/10/08 10:01:04;;;;;;;10.30;6.03;;;;;;;;;;5065705;28;20095;-49
2021/10/08 10:03:31;;;;;;;14.20;6.35;;;;;;;;;;5070483;28;20032;-50
2021/10/08 10:06:06;;;;;;;11.20;5.50;;;;;;;;;;5072095;28;20021;-48
2021/10/08 10:08:33;;;;;;;19.90;6.72;;;;;;;;;;5070923;28;20052;-51
2021/10/08 10:10:59;;;;;;;17.77;6.43;;;;;;;;;;5071275;28;20108;-49
2021/10/08 10:13:25;;;;;;;10.48;5.05;;;;;;;;;;5069836;28;20025;-48
2021/10/08 10:15:52;;;;;;;11.43;5.00;;;;;;;;;;5066583;28;20025;-49
2021/10/08 10:18:20;;;;;;;13.35;4.68;;;;;;;;;;5066655;28;20048;-48
2021/10/08 10:20:50;;;;;;;9.65;4.57;;;;;;;;;;5068382;28;20059;-48
2021/10/08 10:23:18;;;;;;;9.43;3.53;;;;;;;;;;5070021;28;20551;-48
2021/10/08 10:25:44;;;;;;;9.95;4.57;;;;;;;;;;5065808;28;20068;-49
2021/10/08 10:28:10;;;;;;;9.98;4.55;;;;;;;;;;5059599;28;20040;-48
2021/10/08 10:30:37;;;;;;;13.02;4.20;;;;;;;;;;5070267;28;20107;-48
2021/10/08 10:33:03;;;;;;;9.35;4.03;;;;;;;;;;5066075;28;20063;-48
2021/10/08 10:35:39;;;;;;;7.90;4.22;;;;;;;;;;5071684;28;20126;-53
2021/10/08 10:38:21;;;;;;;10.80;4.22;;;;;;;;;;5058509;28;20349;-49
2021/10/08 10:40:47;;;;;;;11.10;3.63;;;;;;;;;;5071016;28;20020;-50
2021/10/08 10:43:16;;;;;;;13.60;4.50;;;;;;;;;;5066412;28;20032;-50
2021/10/08 10:45:48;;;;;;;10.05;4.15;;;;;;;;;;5064231;28;20101;-55
2021/10/08 10:48:28;;;;;;;6.90;3.63;;;;;;;;;;5065741;28;20036;-51
2021/10/08 10:51:23;;;;;;;8.88;4.03;;;;;;;;;;5060298;28;20074;-51
2021/10/08 10:53:50;;;;;;;11.00;3.75;;;;;;;;;;5048106;28;20040;-52
2021/10/08 10:56:35;;;;;;;8.43;3.97;;;;;;;;;;5072181;28;20058;-51
2021/10/08 10:59:20;;;;;;;6.85;3.13;;;;;;;;;;5071673;28;20025;-50
2021/10/08 11:02:11;;;;;;;7.50;3.50;;;;;;;;;;5071810;28;20021;-53
2021/10/08 11:04:44;;;;;;;8.63;4.18;;;;;;;;;;5071280;28;20032;-48
2021/10/08 11:07:14;;;;;;;7.20;3.15;;;;;;;;;;5071833;28;20058;-48
2021/10/08 11:09:41;;;;;;;6.13;2.92;;;;;;;;;;5071356;28;20024;-51
2021/10/08 11:12:26;;;;;;;6.55;3.25;;;;;;;;;;5070420;28;20036;-49
2021/10/08 11:15:11;;;;;;;6.18;3.40;;;;;;;;;;5069923;28;20056;-52
2021/10/08 11:17:57;;;;;;;8.05;3.35;;;;;;;;;;5071698;28;20107;-49
2021/10/08 11:20:26;;;;;;;7.78;3.28;;;;;;;;;;5071815;28;20060;-48
2021/10/08 11:22:53;;;;;;;9.43;3.25;;;;;;;;;;5069418;28;20637;-49
2021/10/08 11:25:19;;;;;;;8.18;3.97;;;;;;;;;;5067593;28;20100;-53
2021/10/08 11:27:49;;;;;;;8.68;3.70;;;;;;;;;;5066432;28;20095;-53
2021/10/08 11:30:15;;;;;;;9.02;3.67;;;;;;;;;;5080225;28;20103;-51
2021/10/08 11:32:45;;;;;;;7.47;2.90;;;;;;;;;;5064576;28;20034;-50
2021/10/08 11:35:14;;;;;;;9.73;3.53;;;;;;;;;;5061907;28;20147;-50
2021/10/08 11:37:44;;;;;;;7.18;3.17;;;;;;;;;;5059639;28;20020;-52
2021/10/08 11:40:13;;;;;;;8.73;3.38;;;;;;;;;;5058055;28;20029;-50
2021/10/08 11:42:42;;;;;;;10.23;3.83;;;;;;;;;;5066451;28;20029;-49
2021/10/08 11:45:13;;;;;;;6.18;3.42;;;;;;;;;;5069282;28;20036;-49
2021/10/08 11:47:47;;;;;;;7.82;3.30;;;;;;;;;;5073598;28;20111;-49
2021/10/08 11:50:43;;;;;;;8.45;3.60;;;;;;;;;;5072922;28;20028;-50
2021/10/08 11:53:09;;;;;;;7.78;3.75;;;;;;;;;;5062434;28;20029;-49
2021/10/08 11:55:38;;;;;;;7.43;3.55;;;;;;;;;;5064471;28;20040;-48
2021/10/08 11:58:10;;;;;;;9.07;3.75;;;;;;;;;;5068514;28;20013;-49
2021/10/08 12:00:36;;;;;;;8.45;3.15;;;;;;;;;;5069133;28;20354;-49
2021/10/08 12:03:03;;;;;;;6.90;3.75;;;;;;;;;;5074646;28;20035;-48
2021/10/08 12:05:43;;;;;;;8.45;3.38;;;;;;;;;;5074725;28;20020;-49
2021/10/08 12:08:12;;;;;;;7.43;3.30;;;;;;;;;;5074727;28;20060;-49
2021/10/08 12:10:39;;;;;;;5.32;2.67;;;;;;;;;;5074675;28;20040;-51
2021/10/08 12:13:05;;;;;;;5.03;3.28;;;;;;;;;;5075901;28;20085;-51
2021/10/08 12:15:34;;;;;;;7.63;3.30;;;;;;;;;;5074559;28;20024;-49
2021/10/08 12:18:01;;;;;;;9.02;3.90;;;;;;;;;;5074537;28;20104;-52
2021/10/08 12:20:34;;;;;;;7.80;2.72;;;;;;;;;;5074035;28;20111;-52
2021/10/08 12:23:20;;;;;;;5.43;2.60;;;;;;;;;;5072414;28;20094;-49
2021/10/08 12:25:47;;;;;;;6.57;2.95;;;;;;;;;;5074744;28;20514;-50
2021/10/08 12:28:15;;;;;;;7.68;2.50;;;;;;;;;;5074204;28;20162;-52
2021/10/08 12:30:49;;;;;;;7.05;3.10;;;;;;;;;;5064892;28;20021;-51
2021/10/08 12:33:23;;;;;;;4.57;2.70;;;;;;;;;;5077327;28;20036;-50
2021/10/08 12:36:08;;;;;;;9.48;2.72;;;;;;;;;;5076772;28;20032;-50
2021/10/08 12:38:50;;;;;;;4.10;2.30;;;;;;;;;;5073996;28;20426;-52
2021/10/08 12:41:38;;;;;;;5.20;2.47;;;;;;;;;;5069558;28;20055;-50
2021/10/08 12:44:06;;;;;;;7.88;2.72;;;;;;;;;;5075489;28;20623;-51
2021/10/08 12:46:37;;;;;;;5.97;2.72;;;;;;;;;;5074038;28;20016;-49
2021/10/08 12:49:03;;;;;;;4.63;2.40;;;;;;;;;;5073825;28;20017;-49
2021/10/08 12:51:29;;;;;;;7.57;3.17;;;;;;;;;;5073848;28;20024;-51
2021/10/08 12:54:11;;;;;;;4.60;2.60;;;;;;;;;;5071237;28;20127;-49
2021/10/08 12:56:37;;;;;;;9.43;2.88;;;;;;;;;;5073907;28;20075;-50
2021/10/08 12:59:03;;;;;;;7.00;3.55;;;;;;;;;;5075384;28;20503;-51
2021/10/08 13:01:29;;;;;;;10.63;2.78;;;;;;;;;;5073660;28;20039;-49
2021/10/08 13:03:56;;;;;;;5.25;2.80;;;;;;;;;;5069126;28;20028;-49
2021/10/08 13:06:24;;;;;;;6.28;2.60;;;;;;;;;;5072755;28;20546;-50
2021/10/08 13:09:03;;;;;;;11.63;2.78;;;;;;;;;;5070926;28;20428;-49
2021/10/08 13:11:35;;;;;;;5.63;2.22;;;;;;;;;;5073036;28;20079;-49
2021/10/08 13:14:01;;;;;;;10.48;2.75;;;;;;;;;;5072514;28;20115;-49
2021/10/08 13:16:36;;;;;;;7.97;2.50;;;;;;;;;;5073617;28;20436;-49
2021/10/08 13:19:02;;;;;;;4.20;2.40;;;;;;;;;;5073517;28;20056;-49
2021/10/08 13:21:29;;;;;;;5.50;2.40;;;;;;;;;;5073362;28;20163;-49
2021/10/08 13:23:56;;;;;;;4.68;2.55;;;;;;;;;;5073602;28;20040;-51
2021/10/08 13:26:22;;;;;;;8.38;2.17;;;;;;;;;;5070032;28;20041;-51
2021/10/08 13:28:49;;;;;;;5.60;2.50;;;;;;;;;;5073591;28;20020;-49
2021/10/08 13:31:16;;;;;;;4.60;2.40;;;;;;;;;;5072958;28;20036;-49
2021/10/08 13:33:42;;;;;;;5.80;2.83;;;;;;;;;;5073624;28;20019;-49
2021/10/08 13:36:09;;;;;;;7.32;2.42;;;;;;;;;;5073072;28;20035;-50
2021/10/08 13:38:35;;;;;;;9.18;2.30;;;;;;;;;;5073463;28;20029;-50
2021/10/08 13:41:01;;;;;;;8.43;2.40;;;;;;;;;;5073273;28;20020;-49
2021/10/08 13:43:28;;;;;;;5.45;2.45;;;;;;;;;;5073149;28;20027;-49
2021/10/08 13:45:55;;;;;;;5.00;2.60;;;;;;;;;;5073007;28;20108;-51
2021/10/08 13:48:21;;;;;;;7.20;2.53;;;;;;;;;;5069825;28;20021;-50
2021/10/08 13:50:47;;;;;;;7.22;2.30;;;;;;;;;;5073055;28;20423;-52
2021/10/08 13:53:13;;;;;;;10.43;2.50;;;;;;;;;;5072890;28;20035;-49
2021/10/08 13:55:40;;;;;;;4.38;2.47;;;;;;;;;;5066470;28;20039;-49
2021/10/08 13:58:09;;;;;;;4.25;1.92;;;;;;;;;;5071750;28;20085;-49
2021/10/08 14:00:38;;;;;;;4.55;2.65;;;;;;;;;;5073996;28;20036;-50
2021/10/08 14:08:45;;;;;;;12.80;3.33;;;;;;;;;;5059962;28;20030;-50
2021/10/08 14:11:11;;;;;;;9.75;2.30;;;;;;;;;;5068204;28;20107;-50
2021/10/08 14:13:38;;;;;;;9.23;2.20;;;;;;;;;;5072404;28;20077;-52
2021/10/08 14:16:04;;;;;;;5.85;2.80;;;;;;;;;;5064993;28;20451;-51
2021/10/08 14:18:30;;;;;;;8.05;2.75;;;;;;;;;;5070321;28;20044;-49
2021/10/08 14:20:56;;;;;;;6.78;2.53;;;;;;;;;;5068430;28;20032;-50
2021/10/08 14:23:23;;;;;;;4.97;2.00;;;;;;;;;;5071721;28;20492;-50
2021/10/08 14:25:49;;;;;;;9.43;2.83;;;;;;;;;;5069355;28;20055;-52
2021/10/08 14:28:15;;;;;;;5.07;2.03;;;;;;;;;;5070130;28;20025;-50
2021/10/08 14:30:41;;;;;;;11.63;3.10;;;;;;;;;;5066848;28;20142;-49
2021/10/08 14:33:07;;;;;;;6.43;3.15;;;;;;;;;;5065865;28;20068;-48
2021/10/08 14:35:34;;;;;;;6.60;2.88;;;;;;;;;;5065242;28;20453;-49
2021/10/08 14:38:02;;;;;;;5.55;2.63;;;;;;;;;;5069202;28;20115;-49
2021/10/08 14:40:28;;;;;;;10.32;3.30;;;;;;;;;;5068405;28;20029;-51
2021/10/08 14:42:54;;;;;;;7.53;2.80;;;;;;;;;;5071964;28;20384;-49
2021/10/08 14:45:20;;;;;;;5.40;2.55;;;;;;;;;;5070637;28;20020;-48